sensor_id;sensor_type;location;lat;lon;timestamp;P1;durP1;ratioP1;P2;durP2;ratioP2
69937;SDS011;57248;47.320;15.998;2023-06-22T00:01:45;13.25;;;6.00;;
69937;SDS011;57248;47.320;15.998;2023-06-22T00:04:31;17.73;;;6.60;;
69937;SDS011;57248;47.320;15.998;2023-06-22T00:07:03;15.80;;;6.68;;
69937;SDS011;57248;47.320;15.998;2023-06-22T00:09:35;19.40;;;6.73;;
69937;SDS011;57248;47.320;15.998;2023-06-22T00:12:01;16.10;;;6.97;;
69937;SDS011;57248;47.320;15.998;2023-06-22T00:14:33;12.17;;;6.20;;
69937;SDS011;57248;47.320;15.998;2023-06-22T00:17:05;18.65;;;6.53;;
69937;SDS011;57248;47.320;15.998;2023-06-22T00:19:37;16.63;;;6.55;;
69937;SDS011;57248;47.320;15.998;2023-06-22T00:22:11;14.43;;;5.90;;
69937;SDS011;57248;47.320;15.998;2023-06-22T00:24:43;15.50;;;6.60;;
69937;SDS011;57248;47.320;15.998;2023-06-22T00:27:15;18.07;;;7.50;;
69937;SDS011;57248;47.320;15.998;2023-06-22T00:29:47;16.73;;;7.38;;
69937;SDS011;57248;47.320;15.998;2023-06-22T00:32:20;14.57;;;7.53;;
69937;SDS011;57248;47.320;15.998;2023-06-22T00:34:51;18.55;;;7.57;;
69937;SDS011;57248;47.320;15.998;2023-06-22T00:37:23;13.80;;;6.78;;
69937;SDS011;57248;47.320;15.998;2023-06-22T00:39:58;18.97;;;7.27;;
69937;SDS011;57248;47.320;15.998;2023-06-22T00:42:30;14.07;;;6.97;;
69937;SDS011;57248;47.320;15.998;2023-06-22T00:45:02;18.85;;;7.32;;
69937;SDS011;57248;47.320;15.998;2023-06-22T00:47:35;14.43;;;6.10;;
69937;SDS011;57248;47.320;15.998;2023-06-22T00:50:03;15.52;;;6.35;;
69937;SDS011;57248;47.320;15.998;2023-06-22T00:52:38;13.67;;;6.37;;
69937;SDS011;57248;47.320;15.998;2023-06-22T00:55:09;15.73;;;6.35;;
69937;SDS011;57248;47.320;15.998;2023-06-22T00:57:41;17.88;;;6.03;;
69937;SDS011;57248;47.320;15.998;2023-06-22T01:00:16;13.32;;;6.47;;
69937;SDS011;57248;47.320;15.998;2023-06-22T01:02:52;13.27;;;6.20;;
69937;SDS011;57248;47.320;15.998;2023-06-22T01:05:31;13.80;;;6.00;;
69937;SDS011;57248;47.320;15.998;2023-06-22T01:11:48;12.88;;;5.70;;
69937;SDS011;57248;47.320;15.998;2023-06-22T01:16:33;18.30;;;6.65;;
69937;SDS011;57248;47.320;15.998;2023-06-22T01:22:16;16.30;;;6.85;;
69937;SDS011;57248;47.320;15.998;2023-06-22T01:24:57;14.50;;;6.15;;
69937;SDS011;57248;47.320;15.998;2023-06-22T01:28:13;16.35;;;6.57;;
69937;SDS011;57248;47.320;15.998;2023-06-22T01:30:46;17.15;;;6.80;;
69937;SDS011;57248;47.320;15.998;2023-06-22T01:33:20;13.93;;;6.03;;
69937;SDS011;57248;47.320;15.998;2023-06-22T01:35:46;17.38;;;6.78;;
69937;SDS011;57248;47.320;15.998;2023-06-22T01:38:18;18.58;;;6.60;;
69937;SDS011;57248;47.320;15.998;2023-06-22T01:40:51;14.73;;;6.32;;
69937;SDS011;57248;47.320;15.998;2023-06-22T01:43:28;14.47;;;6.40;;
69937;SDS011;57248;47.320;15.998;2023-06-22T01:46:01;14.80;;;5.93;;
69937;SDS011;57248;47.320;15.998;2023-06-22T01:48:33;16.40;;;6.35;;
69937;SDS011;57248;47.320;15.998;2023-06-22T01:51:05;15.43;;;6.40;;
69937;SDS011;57248;47.320;15.998;2023-06-22T01:53:38;14.55;;;6.05;;
69937;SDS011;57248;47.320;15.998;2023-06-22T01:56:11;17.03;;;5.87;;
69937;SDS011;57248;47.320;15.998;2023-06-22T01:58:40;16.30;;;6.25;;
69937;SDS011;57248;47.320;15.998;2023-06-22T02:01:28;16.45;;;6.25;;
69937;SDS011;57248;47.320;15.998;2023-06-22T02:04:21;11.27;;;5.78;;
69937;SDS011;57248;47.320;15.998;2023-06-22T02:07:05;15.20;;;5.73;;
69937;SDS011;57248;47.320;15.998;2023-06-22T02:09:44;13.63;;;6.50;;
69937;SDS011;57248;47.320;15.998;2023-06-22T02:12:21;11.52;;;5.75;;
69937;SDS011;57248;47.320;15.998;2023-06-22T02:14:54;14.48;;;5.93;;
69937;SDS011;57248;47.320;15.998;2023-06-22T02:17:28;14.90;;;6.07;;
69937;SDS011;57248;47.320;15.998;2023-06-22T02:20:05;16.93;;;6.43;;
69937;SDS011;57248;47.320;15.998;2023-06-22T02:22:41;15.70;;;6.32;;
69937;SDS011;57248;47.320;15.998;2023-06-22T02:25:13;15.60;;;6.75;;
69937;SDS011;57248;47.320;15.998;2023-06-22T02:27:45;15.43;;;6.60;;
69937;SDS011;57248;47.320;15.998;2023-06-22T02:30:17;16.48;;;5.82;;
69937;SDS011;57248;47.320;15.998;2023-06-22T02:32:49;15.80;;;6.27;;
69937;SDS011;57248;47.320;15.998;2023-06-22T02:35:30;15.85;;;6.05;;
69937;SDS011;57248;47.320;15.998;2023-06-22T02:38:06;16.45;;;6.30;;
69937;SDS011;57248;47.320;15.998;2023-06-22T02:40:39;14.10;;;6.20;;
69937;SDS011;57248;47.320;15.998;2023-06-22T02:43:12;11.55;;;5.75;;
69937;SDS011;57248;47.320;15.998;2023-06-22T02:45:44;14.17;;;6.17;;
69937;SDS011;57248;47.320;15.998;2023-06-22T02:48:16;15.57;;;6.18;;
69937;SDS011;57248;47.320;15.998;2023-06-22T02:50:49;12.60;;;6.53;;
69937;SDS011;57248;47.320;15.998;2023-06-22T02:53:21;14.10;;;6.13;;
69937;SDS011;57248;47.320;15.998;2023-06-22T02:55:54;18.08;;;6.35;;
69937;SDS011;57248;47.320;15.998;2023-06-22T02:58:29;11.43;;;6.50;;
69937;SDS011;57248;47.320;15.998;2023-06-22T03:01:08;16.90;;;6.68;;
69937;SDS011;57248;47.320;15.998;2023-06-22T03:03:46;15.82;;;6.93;;
69937;SDS011;57248;47.320;15.998;2023-06-22T03:06:24;15.55;;;6.72;;
69937;SDS011;57248;47.320;15.998;2023-06-22T03:09:00;18.27;;;6.80;;
69937;SDS011;57248;47.320;15.998;2023-06-22T03:11:36;15.23;;;7.07;;
69937;SDS011;57248;47.320;15.998;2023-06-22T03:14:08;20.85;;;7.57;;
69937;SDS011;57248;47.320;15.998;2023-06-22T03:16:39;18.33;;;6.68;;
69937;SDS011;57248;47.320;15.998;2023-06-22T03:19:13;15.07;;;6.43;;
69937;SDS011;57248;47.320;15.998;2023-06-22T03:21:47;13.70;;;6.55;;
69937;SDS011;57248;47.320;15.998;2023-06-22T03:24:18;18.87;;;6.70;;
69937;SDS011;57248;47.320;15.998;2023-06-22T03:26:45;13.18;;;6.55;;
69937;SDS011;57248;47.320;15.998;2023-06-22T03:29:17;16.95;;;6.70;;
69937;SDS011;57248;47.320;15.998;2023-06-22T03:31:49;19.80;;;6.47;;
69937;SDS011;57248;47.320;15.998;2023-06-22T03:34:22;14.57;;;6.30;;
69937;SDS011;57248;47.320;15.998;2023-06-22T03:36:53;17.10;;;6.60;;
69937;SDS011;57248;47.320;15.998;2023-06-22T03:39:25;12.43;;;6.30;;
69937;SDS011;57248;47.320;15.998;2023-06-22T03:41:52;15.10;;;6.70;;
69937;SDS011;57248;47.320;15.998;2023-06-22T03:44:24;17.05;;;6.13;;
69937;SDS011;57248;47.320;15.998;2023-06-22T03:46:57;14.85;;;6.00;;
69937;SDS011;57248;47.320;15.998;2023-06-22T03:49:28;12.10;;;5.67;;
69937;SDS011;57248;47.320;15.998;2023-06-22T03:52:01;14.63;;;6.45;;
69937;SDS011;57248;47.320;15.998;2023-06-22T03:54:30;18.30;;;6.93;;
69937;SDS011;57248;47.320;15.998;2023-06-22T03:57:03;16.25;;;6.25;;
69937;SDS011;57248;47.320;15.998;2023-06-22T03:59:28;15.20;;;6.43;;
69937;SDS011;57248;47.320;15.998;2023-06-22T04:02:00;14.43;;;6.78;;
69937;SDS011;57248;47.320;15.998;2023-06-22T04:04:39;16.63;;;6.95;;
69937;SDS011;57248;47.320;15.998;2023-06-22T04:07:12;20.42;;;8.70;;
69937;SDS011;57248;47.320;15.998;2023-06-22T04:09:44;19.85;;;8.00;;
69937;SDS011;57248;47.320;15.998;2023-06-22T04:12:10;19.07;;;7.67;;
69937;SDS011;57248;47.320;15.998;2023-06-22T04:14:43;13.85;;;7.82;;
69937;SDS011;57248;47.320;15.998;2023-06-22T04:17:14;15.80;;;8.17;;
69937;SDS011;57248;47.320;15.998;2023-06-22T04:19:47;15.63;;;7.60;;
69937;SDS011;57248;47.320;15.998;2023-06-22T04:22:18;19.17;;;8.30;;
69937;SDS011;57248;47.320;15.998;2023-06-22T04:24:44;16.03;;;8.60;;
69937;SDS011;57248;47.320;15.998;2023-06-22T04:27:18;13.45;;;8.07;;
69937;SDS011;57248;47.320;15.998;2023-06-22T04:29:50;15.55;;;7.43;;
69937;SDS011;57248;47.320;15.998;2023-06-22T04:32:16;16.23;;;7.57;;
69937;SDS011;57248;47.320;15.998;2023-06-22T04:34:49;15.57;;;7.90;;
69937;SDS011;57248;47.320;15.998;2023-06-22T04:37:23;52.50;;;20.38;;
69937;SDS011;57248;47.320;15.998;2023-06-22T04:39:55;16.52;;;8.60;;
69937;SDS011;57248;47.320;15.998;2023-06-22T04:42:29;15.82;;;7.82;;
69937;SDS011;57248;47.320;15.998;2023-06-22T04:45:02;15.15;;;8.70;;
69937;SDS011;57248;47.320;15.998;2023-06-22T04:47:34;14.37;;;8.30;;
69937;SDS011;57248;47.320;15.998;2023-06-22T04:50:11;17.75;;;8.15;;
69937;SDS011;57248;47.320;15.998;2023-06-22T04:52:44;16.38;;;8.45;;
69937;SDS011;57248;47.320;15.998;2023-06-22T04:55:17;20.90;;;9.45;;
69937;SDS011;57248;47.320;15.998;2023-06-22T04:57:49;14.98;;;8.45;;
69937;SDS011;57248;47.320;15.998;2023-06-22T05:00:21;14.37;;;8.30;;
69937;SDS011;57248;47.320;15.998;2023-06-22T05:02:54;15.50;;;8.05;;
69937;SDS011;57248;47.320;15.998;2023-06-22T05:05:34;12.73;;;7.57;;
69937;SDS011;57248;47.320;15.998;2023-06-22T05:08:07;15.65;;;8.07;;
69937;SDS011;57248;47.320;15.998;2023-06-22T05:10:38;14.85;;;8.05;;
69937;SDS011;57248;47.320;15.998;2023-06-22T05:13:10;15.50;;;8.70;;
69937;SDS011;57248;47.320;15.998;2023-06-22T05:15:44;15.27;;;8.27;;
69937;SDS011;57248;47.320;15.998;2023-06-22T05:18:18;14.05;;;8.65;;
69937;SDS011;57248;47.320;15.998;2023-06-22T05:20:55;16.00;;;8.50;;
69937;SDS011;57248;47.320;15.998;2023-06-22T05:23:26;14.02;;;8.75;;
69937;SDS011;57248;47.320;15.998;2023-06-22T05:25:59;14.97;;;8.50;;
69937;SDS011;57248;47.320;15.998;2023-06-22T05:28:24;15.65;;;9.13;;
69937;SDS011;57248;47.320;15.998;2023-06-22T05:30:56;16.80;;;8.93;;
69937;SDS011;57248;47.320;15.998;2023-06-22T05:33:29;17.77;;;8.63;;
69937;SDS011;57248;47.320;15.998;2023-06-22T05:36:00;14.82;;;8.82;;
69937;SDS011;57248;47.320;15.998;2023-06-22T05:38:34;14.55;;;8.02;;
69937;SDS011;57248;47.320;15.998;2023-06-22T05:41:06;15.55;;;8.48;;
69937;SDS011;57248;47.320;15.998;2023-06-22T05:43:39;15.13;;;8.43;;
69937;SDS011;57248;47.320;15.998;2023-06-22T05:46:11;12.77;;;7.93;;
69937;SDS011;57248;47.320;15.998;2023-06-22T05:48:44;13.73;;;7.93;;
69937;SDS011;57248;47.320;15.998;2023-06-22T05:51:16;18.38;;;8.57;;
69937;SDS011;57248;47.320;15.998;2023-06-22T05:53:48;19.48;;;8.70;;
69937;SDS011;57248;47.320;15.998;2023-06-22T05:56:22;14.43;;;7.77;;
69937;SDS011;57248;47.320;15.998;2023-06-22T05:58:53;13.27;;;8.02;;
69937;SDS011;57248;47.320;15.998;2023-06-22T06:01:32;12.90;;;7.63;;
69937;SDS011;57248;47.320;15.998;2023-06-22T06:04:06;16.88;;;8.30;;
69937;SDS011;57248;47.320;15.998;2023-06-22T06:06:45;13.95;;;8.27;;
69937;SDS011;57248;47.320;15.998;2023-06-22T06:09:19;13.43;;;7.70;;
69937;SDS011;57248;47.320;15.998;2023-06-22T06:11:51;15.23;;;7.95;;
69937;SDS011;57248;47.320;15.998;2023-06-22T06:14:24;13.07;;;8.43;;
69937;SDS011;57248;47.320;15.998;2023-06-22T06:16:56;15.63;;;7.95;;
69937;SDS011;57248;47.320;15.998;2023-06-22T06:19:28;17.17;;;8.50;;
69937;SDS011;57248;47.320;15.998;2023-06-22T06:22:01;13.27;;;8.43;;
69937;SDS011;57248;47.320;15.998;2023-06-22T06:24:34;14.43;;;7.95;;
69937;SDS011;57248;47.320;15.998;2023-06-22T06:27:06;13.88;;;8.10;;
69937;SDS011;57248;47.320;15.998;2023-06-22T06:29:38;15.05;;;7.97;;
69937;SDS011;57248;47.320;15.998;2023-06-22T06:32:10;14.85;;;8.10;;
69937;SDS011;57248;47.320;15.998;2023-06-22T06:34:42;16.13;;;7.23;;
69937;SDS011;57248;47.320;15.998;2023-06-22T06:37:15;13.10;;;7.88;;
69937;SDS011;57248;47.320;15.998;2023-06-22T06:39:47;13.93;;;7.78;;
69937;SDS011;57248;47.320;15.998;2023-06-22T06:42:20;13.40;;;7.60;;
69937;SDS011;57248;47.320;15.998;2023-06-22T06:44:55;14.10;;;7.88;;
69937;SDS011;57248;47.320;15.998;2023-06-22T06:47:27;15.13;;;8.57;;
69937;SDS011;57248;47.320;15.998;2023-06-22T06:49:59;13.93;;;8.65;;
69937;SDS011;57248;47.320;15.998;2023-06-22T06:52:31;17.13;;;9.38;;
69937;SDS011;57248;47.320;15.998;2023-06-22T06:55:03;16.67;;;9.32;;
69937;SDS011;57248;47.320;15.998;2023-06-22T06:57:40;12.73;;;8.27;;
69937;SDS011;57248;47.320;15.998;2023-06-22T07:00:13;11.57;;;8.60;;
69937;SDS011;57248;47.320;15.998;2023-06-22T07:02:53;11.65;;;8.82;;
69937;SDS011;57248;47.320;15.998;2023-06-22T07:05:26;14.85;;;9.60;;
69937;SDS011;57248;47.320;15.998;2023-06-22T07:08:05;12.07;;;8.70;;
69937;SDS011;57248;47.320;15.998;2023-06-22T07:10:37;13.77;;;8.77;;
69937;SDS011;57248;47.320;15.998;2023-06-22T07:13:09;12.97;;;9.47;;
69937;SDS011;57248;47.320;15.998;2023-06-22T07:15:41;14.15;;;9.68;;
69937;SDS011;57248;47.320;15.998;2023-06-22T07:18:14;14.43;;;9.80;;
69937;SDS011;57248;47.320;15.998;2023-06-22T07:20:46;13.57;;;9.65;;
69937;SDS011;57248;47.320;15.998;2023-06-22T07:23:19;15.57;;;10.60;;
69937;SDS011;57248;47.320;15.998;2023-06-22T07:25:51;17.00;;;10.57;;
69937;SDS011;57248;47.320;15.998;2023-06-22T07:28:23;14.70;;;10.95;;
69937;SDS011;57248;47.320;15.998;2023-06-22T07:30:55;13.23;;;10.95;;
69937;SDS011;57248;47.320;15.998;2023-06-22T07:33:27;16.40;;;11.90;;
69937;SDS011;57248;47.320;15.998;2023-06-22T07:35:59;13.93;;;10.98;;
69937;SDS011;57248;47.320;15.998;2023-06-22T07:38:31;13.47;;;11.80;;
69937;SDS011;57248;47.320;15.998;2023-06-22T07:41:03;14.77;;;11.80;;
69937;SDS011;57248;47.320;15.998;2023-06-22T07:43:37;14.43;;;13.02;;
69937;SDS011;57248;47.320;15.998;2023-06-22T07:46:09;14.55;;;13.00;;
69937;SDS011;57248;47.320;15.998;2023-06-22T07:48:42;14.48;;;12.85;;
69937;SDS011;57248;47.320;15.998;2023-06-22T07:51:15;14.10;;;12.63;;
69937;SDS011;57248;47.320;15.998;2023-06-22T07:53:47;15.50;;;12.82;;
69937;SDS011;57248;47.320;15.998;2023-06-22T07:56:20;14.05;;;11.43;;
69937;SDS011;57248;47.320;15.998;2023-06-22T07:58:53;15.18;;;12.85;;
69937;SDS011;57248;47.320;15.998;2023-06-22T08:01:25;14.38;;;12.88;;
69937;SDS011;57248;47.320;15.998;2023-06-22T08:04:03;14.60;;;13.03;;
69937;SDS011;57248;47.320;15.998;2023-06-22T08:06:37;17.35;;;12.93;;
69937;SDS011;57248;47.320;15.998;2023-06-22T08:09:09;19.38;;;14.25;;
69937;SDS011;57248;47.320;15.998;2023-06-22T08:11:41;16.75;;;14.88;;
69937;SDS011;57248;47.320;15.998;2023-06-22T08:14:13;17.33;;;15.50;;
69937;SDS011;57248;47.320;15.998;2023-06-22T08:16:38;18.20;;;14.47;;
69937;SDS011;57248;47.320;15.998;2023-06-22T08:19:10;17.60;;;15.80;;
69937;SDS011;57248;47.320;15.998;2023-06-22T08:21:42;16.57;;;14.80;;
69937;SDS011;57248;47.320;15.998;2023-06-22T08:24:14;15.27;;;13.52;;
69937;SDS011;57248;47.320;15.998;2023-06-22T08:26:46;16.52;;;14.20;;
69937;SDS011;57248;47.320;15.998;2023-06-22T08:29:18;15.25;;;13.75;;
69937;SDS011;57248;47.320;15.998;2023-06-22T08:31:50;16.52;;;14.82;;
69937;SDS011;57248;47.320;15.998;2023-06-22T08:34:22;15.60;;;14.10;;
69937;SDS011;57248;47.320;15.998;2023-06-22T08:36:56;16.88;;;14.30;;
69937;SDS011;57248;47.320;15.998;2023-06-22T08:39:28;17.58;;;15.70;;
69937;SDS011;57248;47.320;15.998;2023-06-22T08:42:00;18.10;;;16.20;;
69937;SDS011;57248;47.320;15.998;2023-06-22T08:44:33;18.65;;;16.77;;
69937;SDS011;57248;47.320;15.998;2023-06-22T08:47:05;18.03;;;16.23;;
69937;SDS011;57248;47.320;15.998;2023-06-22T08:49:37;17.35;;;15.63;;
69937;SDS011;57248;47.320;15.998;2023-06-22T08:52:09;16.50;;;14.90;;
69937;SDS011;57248;47.320;15.998;2023-06-22T08:54:41;16.85;;;15.13;;
69937;SDS011;57248;47.320;15.998;2023-06-22T08:57:13;18.63;;;16.73;;
69937;SDS011;57248;47.320;15.998;2023-06-22T08:59:46;17.80;;;15.00;;
69937;SDS011;57248;47.320;15.998;2023-06-22T09:02:34;16.50;;;14.90;;
69937;SDS011;57248;47.320;15.998;2023-06-22T09:05:13;16.10;;;14.43;;
69937;SDS011;57248;47.320;15.998;2023-06-22T09:07:46;16.17;;;14.05;;
69937;SDS011;57248;47.320;15.998;2023-06-22T09:10:18;16.65;;;14.95;;
69937;SDS011;57248;47.320;15.998;2023-06-22T09:12:51;17.00;;;15.40;;
69937;SDS011;57248;47.320;15.998;2023-06-22T09:15:23;18.15;;;16.25;;
69937;SDS011;57248;47.320;15.998;2023-06-22T09:17:56;18.63;;;16.85;;
69937;SDS011;57248;47.320;15.998;2023-06-22T09:20:29;17.70;;;16.00;;
69937;SDS011;57248;47.320;15.998;2023-06-22T09:23:01;18.02;;;16.23;;
69937;SDS011;57248;47.320;15.998;2023-06-22T09:25:33;19.00;;;17.17;;
69937;SDS011;57248;47.320;15.998;2023-06-22T09:28:05;17.20;;;15.45;;
69937;SDS011;57248;47.320;15.998;2023-06-22T09:30:37;18.98;;;17.02;;
69937;SDS011;57248;47.320;15.998;2023-06-22T09:33:09;17.73;;;15.52;;
69937;SDS011;57248;47.320;15.998;2023-06-22T09:35:41;21.33;;;19.35;;
69937;SDS011;57248;47.320;15.998;2023-06-22T09:38:13;20.30;;;18.20;;
69937;SDS011;57248;47.320;15.998;2023-06-22T09:40:45;18.95;;;17.25;;
69937;SDS011;57248;47.320;15.998;2023-06-22T09:43:17;18.55;;;16.83;;
69937;SDS011;57248;47.320;15.998;2023-06-22T09:45:49;18.65;;;16.77;;
69937;SDS011;57248;47.320;15.998;2023-06-22T09:48:14;19.43;;;17.70;;
69937;SDS011;57248;47.320;15.998;2023-06-22T09:50:47;19.63;;;17.77;;
69937;SDS011;57248;47.320;15.998;2023-06-22T09:53:19;20.05;;;18.05;;
69937;SDS011;57248;47.320;15.998;2023-06-22T09:55:51;20.87;;;19.00;;
69937;SDS011;57248;47.320;15.998;2023-06-22T09:58:23;20.40;;;18.67;;
69937;SDS011;57248;47.320;15.998;2023-06-22T10:00:55;22.05;;;20.05;;
69937;SDS011;57248;47.320;15.998;2023-06-22T10:03:34;19.67;;;17.98;;
69937;SDS011;57248;47.320;15.998;2023-06-22T10:06:06;21.25;;;19.05;;
69937;SDS011;57248;47.320;15.998;2023-06-22T10:08:38;22.37;;;20.07;;
69937;SDS011;57248;47.320;15.998;2023-06-22T10:11:04;22.38;;;20.23;;
69937;SDS011;57248;47.320;15.998;2023-06-22T10:13:37;21.20;;;19.13;;
69937;SDS011;57248;47.320;15.998;2023-06-22T10:16:09;18.77;;;16.98;;
69937;SDS011;57248;47.320;15.998;2023-06-22T10:18:41;17.60;;;15.52;;
69937;SDS011;57248;47.320;15.998;2023-06-22T10:21:14;17.60;;;15.50;;
69937;SDS011;57248;47.320;15.998;2023-06-22T10:23:47;18.23;;;15.82;;
69937;SDS011;57248;47.320;15.998;2023-06-22T10:26:19;17.67;;;15.98;;
69937;SDS011;57248;47.320;15.998;2023-06-22T10:28:51;17.05;;;15.32;;
69937;SDS011;57248;47.320;15.998;2023-06-22T10:31:23;18.83;;;16.95;;
69937;SDS011;57248;47.320;15.998;2023-06-22T10:33:55;17.83;;;16.10;;
69937;SDS011;57248;47.320;15.998;2023-06-22T10:36:27;17.73;;;15.93;;
69937;SDS011;57248;47.320;15.998;2023-06-22T10:38:59;17.88;;;16.20;;
69937;SDS011;57248;47.320;15.998;2023-06-22T10:41:27;18.75;;;16.88;;
69937;SDS011;57248;47.320;15.998;2023-06-22T10:44:02;17.45;;;15.43;;
69937;SDS011;57248;47.320;15.998;2023-06-22T10:46:34;18.23;;;16.33;;
69937;SDS011;57248;47.320;15.998;2023-06-22T10:49:06;19.10;;;17.17;;
69937;SDS011;57248;47.320;15.998;2023-06-22T10:51:38;20.10;;;18.20;;
69937;SDS011;57248;47.320;15.998;2023-06-22T10:54:10;20.77;;;18.88;;
69937;SDS011;57248;47.320;15.998;2023-06-22T10:56:45;20.38;;;18.58;;
69937;SDS011;57248;47.320;15.998;2023-06-22T10:59:17;18.63;;;16.43;;
69937;SDS011;57248;47.320;15.998;2023-06-22T11:01:49;19.75;;;16.60;;
69937;SDS011;57248;47.320;15.998;2023-06-22T11:04:21;20.77;;;18.55;;
69937;SDS011;57248;47.320;15.998;2023-06-22T11:07:01;21.23;;;19.13;;
69937;SDS011;57248;47.320;15.998;2023-06-22T11:09:34;21.05;;;19.08;;
69937;SDS011;57248;47.320;15.998;2023-06-22T11:11:59;21.43;;;18.93;;
69937;SDS011;57248;47.320;15.998;2023-06-22T11:14:31;21.33;;;19.42;;
69937;SDS011;57248;47.320;15.998;2023-06-22T11:17:07;21.10;;;18.88;;
69937;SDS011;57248;47.320;15.998;2023-06-22T11:19:39;21.77;;;19.67;;
69937;SDS011;57248;47.320;15.998;2023-06-22T11:22:11;20.95;;;19.05;;
69937;SDS011;57248;47.320;15.998;2023-06-22T11:24:44;24.20;;;22.20;;
69937;SDS011;57248;47.320;15.998;2023-06-22T11:27:16;21.63;;;19.42;;
69937;SDS011;57248;47.320;15.998;2023-06-22T11:29:48;23.48;;;21.08;;
69937;SDS011;57248;47.320;15.998;2023-06-22T11:32:21;20.87;;;19.00;;
69937;SDS011;57248;47.320;15.998;2023-06-22T11:34:53;21.90;;;19.58;;
69937;SDS011;57248;47.320;15.998;2023-06-22T11:37:25;20.67;;;18.88;;
69937;SDS011;57248;47.320;15.998;2023-06-22T11:39:58;21.60;;;19.70;;
69937;SDS011;57248;47.320;15.998;2023-06-22T11:42:30;20.15;;;18.05;;
69937;SDS011;57248;47.320;15.998;2023-06-22T11:45:04;20.07;;;18.30;;
69937;SDS011;57248;47.320;15.998;2023-06-22T11:47:38;22.48;;;20.27;;
69937;SDS011;57248;47.320;15.998;2023-06-22T11:50:04;23.35;;;20.63;;
69937;SDS011;57248;47.320;15.998;2023-06-22T11:52:38;24.42;;;22.13;;
69937;SDS011;57248;47.320;15.998;2023-06-22T11:55:04;25.97;;;23.67;;
69937;SDS011;57248;47.320;15.998;2023-06-22T11:57:38;26.33;;;23.92;;
69937;SDS011;57248;47.320;15.998;2023-06-22T12:00:23;21.83;;;19.95;;
69937;SDS011;57248;47.320;15.998;2023-06-22T12:02:56;22.57;;;20.57;;
69937;SDS011;57248;47.320;15.998;2023-06-22T12:05:28;23.45;;;21.45;;
69937;SDS011;57248;47.320;15.998;2023-06-22T12:08:00;21.90;;;19.52;;
69937;SDS011;57248;47.320;15.998;2023-06-22T12:10:33;19.42;;;17.58;;
69937;SDS011;57248;47.320;15.998;2023-06-22T12:13:06;19.70;;;17.77;;
69937;SDS011;57248;47.320;15.998;2023-06-22T12:15:38;21.43;;;19.30;;
69937;SDS011;57248;47.320;15.998;2023-06-22T12:18:10;20.33;;;18.25;;
69937;SDS011;57248;47.320;15.998;2023-06-22T12:20:44;18.95;;;17.00;;
69937;SDS011;57248;47.320;15.998;2023-06-22T12:23:16;19.38;;;16.33;;
69937;SDS011;57248;47.320;15.998;2023-06-22T12:25:49;19.73;;;17.83;;
69937;SDS011;57248;47.320;15.998;2023-06-22T12:28:21;20.10;;;18.27;;
69937;SDS011;57248;47.320;15.998;2023-06-22T12:30:55;18.33;;;16.63;;
69937;SDS011;57248;47.320;15.998;2023-06-22T12:33:27;20.27;;;18.00;;
69937;SDS011;57248;47.320;15.998;2023-06-22T12:35:59;21.02;;;17.65;;
69937;SDS011;57248;47.320;15.998;2023-06-22T12:38:31;19.20;;;17.20;;
69937;SDS011;57248;47.320;15.998;2023-06-22T12:41:03;20.03;;;17.97;;
69937;SDS011;57248;47.320;15.998;2023-06-22T12:43:36;19.60;;;17.77;;
69937;SDS011;57248;47.320;15.998;2023-06-22T12:46:01;20.10;;;18.20;;
69937;SDS011;57248;47.320;15.998;2023-06-22T12:48:33;19.02;;;17.25;;
69937;SDS011;57248;47.320;15.998;2023-06-22T12:51:05;20.90;;;18.83;;
69937;SDS011;57248;47.320;15.998;2023-06-22T12:53:37;20.30;;;18.38;;
69937;SDS011;57248;47.320;15.998;2023-06-22T12:56:09;20.05;;;16.92;;
69937;SDS011;57248;47.320;15.998;2023-06-22T12:58:41;18.27;;;16.33;;
69937;SDS011;57248;47.320;15.998;2023-06-22T13:01:14;20.75;;;18.85;;
69937;SDS011;57248;47.320;15.998;2023-06-22T13:03:54;21.60;;;19.40;;
69937;SDS011;57248;47.320;15.998;2023-06-22T13:06:26;23.10;;;19.38;;
69937;SDS011;57248;47.320;15.998;2023-06-22T13:08:58;21.35;;;19.17;;
69937;SDS011;57248;47.320;15.998;2023-06-22T13:11:30;20.40;;;17.93;;
69937;SDS011;57248;47.320;15.998;2023-06-22T13:14:02;18.90;;;16.40;;
69937;SDS011;57248;47.320;15.998;2023-06-22T13:16:27;20.48;;;17.98;;
69937;SDS011;57248;47.320;15.998;2023-06-22T13:18:59;19.80;;;17.70;;
69937;SDS011;57248;47.320;15.998;2023-06-22T13:21:31;19.75;;;18.05;;
69937;SDS011;57248;47.320;15.998;2023-06-22T13:24:03;19.13;;;17.10;;
69937;SDS011;57248;47.320;15.998;2023-06-22T13:26:39;17.95;;;16.23;;
69937;SDS011;57248;47.320;15.998;2023-06-22T13:29:11;19.40;;;14.48;;
69937;SDS011;57248;47.320;15.998;2023-06-22T13:31:43;22.43;;;16.40;;
69937;SDS011;57248;47.320;15.998;2023-06-22T13:34:17;19.23;;;16.30;;
69937;SDS011;57248;47.320;15.998;2023-06-22T13:36:49;17.73;;;15.82;;
69937;SDS011;57248;47.320;15.998;2023-06-22T13:39:21;19.17;;;17.17;;
69937;SDS011;57248;47.320;15.998;2023-06-22T13:41:54;18.70;;;16.30;;
69937;SDS011;57248;47.320;15.998;2023-06-22T13:44:26;18.30;;;16.23;;
69937;SDS011;57248;47.320;15.998;2023-06-22T13:47:00;19.92;;;17.00;;
69937;SDS011;57248;47.320;15.998;2023-06-22T13:49:32;18.65;;;16.27;;
69937;SDS011;57248;47.320;15.998;2023-06-22T13:52:04;22.23;;;17.75;;
69937;SDS011;57248;47.320;15.998;2023-06-22T13:54:38;23.15;;;16.63;;
69937;SDS011;57248;47.320;15.998;2023-06-22T13:57:10;19.37;;;17.40;;
69937;SDS011;57248;47.320;15.998;2023-06-22T13:59:42;18.83;;;16.88;;
69937;SDS011;57248;47.320;15.998;2023-06-22T14:02:14;19.73;;;17.20;;
69937;SDS011;57248;47.320;15.998;2023-06-22T14:05:00;21.95;;;16.77;;
69937;SDS011;57248;47.320;15.998;2023-06-22T14:07:32;18.52;;;16.63;;
69937;SDS011;57248;47.320;15.998;2023-06-22T14:10:05;17.57;;;15.87;;
69937;SDS011;57248;47.320;15.998;2023-06-22T14:12:38;17.75;;;15.57;;
69937;SDS011;57248;47.320;15.998;2023-06-22T14:15:10;17.88;;;14.90;;
69937;SDS011;57248;47.320;15.998;2023-06-22T14:17:36;18.00;;;15.80;;
69937;SDS011;57248;47.320;15.998;2023-06-22T14:20:08;19.42;;;14.63;;
69937;SDS011;57248;47.320;15.998;2023-06-22T14:22:40;19.00;;;15.52;;
69937;SDS011;57248;47.320;15.998;2023-06-22T14:25:12;18.90;;;15.82;;
69937;SDS011;57248;47.320;15.998;2023-06-22T14:27:45;18.77;;;15.57;;
69937;SDS011;57248;47.320;15.998;2023-06-22T14:30:11;17.77;;;14.82;;
69937;SDS011;57248;47.320;15.998;2023-06-22T14:32:43;17.23;;;14.15;;
69937;SDS011;57248;47.320;15.998;2023-06-22T14:35:16;20.08;;;14.63;;
69937;SDS011;57248;47.320;15.998;2023-06-22T14:37:48;19.42;;;14.70;;
69937;SDS011;57248;47.320;15.998;2023-06-22T14:40:21;19.13;;;15.10;;
69937;SDS011;57248;47.320;15.998;2023-06-22T14:42:53;21.15;;;15.40;;
69937;SDS011;57248;47.320;15.998;2023-06-22T14:45:25;19.08;;;15.02;;
69937;SDS011;57248;47.320;15.998;2023-06-22T14:47:57;17.55;;;15.35;;
69937;SDS011;57248;47.320;15.998;2023-06-22T14:50:30;16.15;;;14.27;;
69937;SDS011;57248;47.320;15.998;2023-06-22T14:53:02;17.90;;;13.73;;
69937;SDS011;57248;47.320;15.998;2023-06-22T14:55:34;16.55;;;14.52;;
69937;SDS011;57248;47.320;15.998;2023-06-22T14:58:09;17.30;;;12.70;;